Time;durP1;ratioP1;P1;durP2;ratioP2;P2;SDS_P1;SDS_P2;PMS_P1;PMS_P2;Temp;Humidity;BMP_temperature;BMP_pressure;BME280_temperature;BME280_humidity;BME280_pressure;Samples;Min_cycle;Max_cycle;Signal;HPM_P1;HPM_P2
2022/04/07 00:02:03;;;;;;;1.20;0.77;;;;;;;;;;5000836;28;20070;-84
2022/04/07 00:04:30;;;;;;;1.23;0.70;;;;;;;;;;4997245;28;20545;-84
2022/04/07 00:06:56;;;;;;;1.15;1.05;;;;;;;;;;4996525;28;20050;-85
2022/04/07 00:09:23;;;;;;;1.48;0.90;;;;;;;;;;4993895;28;20077;-85
2022/04/07 00:11:49;;;;;;;1.25;0.65;;;;;;;;;;4994928;28;20058;-84
2022/04/07 00:14:16;;;;;;;1.08;0.60;;;;;;;;;;5001080;28;20129;-83
2022/04/07 00:16:44;;;;;;;1.00;0.77;;;;;;;;;;5001214;28;20125;-85
2022/04/07 00:19:11;;;;;;;1.50;0.90;;;;;;;;;;4992818;28;20128;-83
2022/04/07 00:21:38;;;;;;;1.15;0.75;;;;;;;;;;4991578;28;20069;-84
2022/04/07 00:24:06;;;;;;;1.83;0.93;;;;;;;;;;4994542;28;20046;-85
2022/04/07 00:26:33;;;;;;;1.77;0.98;;;;;;;;;;4994505;28;20482;-85
2022/04/07 00:29:00;;;;;;;1.50;0.75;;;;;;;;;;4994001;28;20463;-85
2022/04/07 00:31:27;;;;;;;3.42;1.20;;;;;;;;;;4993982;28;20062;-84
2022/04/07 00:33:55;;;;;;;2.22;1.00;;;;;;;;;;4991962;28;20057;-84
2022/04/07 00:36:21;;;;;;;1.48;0.85;;;;;;;;;;4995064;28;20129;-83
2022/04/07 00:38:48;;;;;;;2.85;0.82;;;;;;;;;;4991462;28;20125;-85
2022/04/07 00:41:14;;;;;;;2.20;1.05;;;;;;;;;;4993788;28;20070;-83
2022/04/07 00:43:41;;;;;;;2.63;1.00;;;;;;;;;;4994487;28;20121;-85
2022/04/07 00:46:07;;;;;;;1.52;0.80;;;;;;;;;;4993980;28;20113;-85
2022/04/07 00:48:35;;;;;;;1.42;0.90;;;;;;;;;;4994714;28;20069;-84
2022/04/07 00:51:04;;;;;;;0.98;0.60;;;;;;;;;;4995131;28;20048;-84
2022/04/07 00:53:30;;;;;;;2.25;0.85;;;;;;;;;;5000056;28;20098;-83
2022/04/07 00:56:00;;;;;;;1.48;0.90;;;;;;;;;;5005313;28;20486;-86
2022/04/07 00:58:28;;;;;;;1.67;0.90;;;;;;;;;;5012105;28;20034;-83
2022/04/07 01:00:54;;;;;;;1.30;0.75;;;;;;;;;;4998061;28;20081;-84
2022/04/07 01:03:21;;;;;;;1.42;0.70;;;;;;;;;;4998931;28;20088;-84
2022/04/07 01:05:47;;;;;;;1.80;1.00;;;;;;;;;;4998399;28;20102;-85
2022/04/07 01:08:16;;;;;;;1.08;0.70;;;;;;;;;;4996871;28;20803;-86
2022/04/07 01:10:43;;;;;;;1.80;1.00;;;;;;;;;;4998579;28;20441;-84
2022/04/07 01:13:11;;;;;;;1.33;0.85;;;;;;;;;;4998596;28;20125;-85
2022/04/07 01:15:38;;;;;;;0.90;0.70;;;;;;;;;;4996724;28;20038;-84
2022/04/07 01:18:04;;;;;;;1.27;0.88;;;;;;;;;;5001247;28;20061;-85
2022/04/07 01:20:31;;;;;;;2.85;1.05;;;;;;;;;;4993356;28;20081;-85
2022/04/07 01:22:58;;;;;;;1.63;1.08;;;;;;;;;;4998232;28;20047;-83
2022/04/07 01:25:27;;;;;;;1.70;0.90;;;;;;;;;;4993896;28;20427;-83
2022/04/07 01:27:53;;;;;;;2.28;1.40;;;;;;;;;;5003616;28;20053;-85
2022/04/07 01:30:20;;;;;;;2.15;1.17;;;;;;;;;;4996495;28;20133;-84
2022/04/07 01:32:49;;;;;;;2.53;1.05;;;;;;;;;;4998382;28;20118;-84
2022/04/07 01:35:15;;;;;;;2.00;1.00;;;;;;;;;;4994874;28;20451;-83
2022/04/07 01:37:46;;;;;;;2.55;1.33;;;;;;;;;;4987525;28;20121;-83
2022/04/07 01:40:16;;;;;;;1.73;1.10;;;;;;;;;;4995012;28;20570;-83
2022/04/07 01:42:46;;;;;;;2.05;1.20;;;;;;;;;;5000173;28;20117;-84
2022/04/07 01:45:13;;;;;;;3.17;1.50;;;;;;;;;;4990698;28;20065;-85
2022/04/07 01:47:41;;;;;;;2.20;1.25;;;;;;;;;;4996246;28;20694;-85
2022/04/07 01:50:09;;;;;;;2.65;1.35;;;;;;;;;;4998650;28;20125;-85
2022/04/07 01:52:36;;;;;;;2.53;1.40;;;;;;;;;;5000005;28;20526;-85
2022/04/07 01:55:04;;;;;;;1.60;1.10;;;;;;;;;;4997367;28;20137;-82
2022/04/07 01:57:31;;;;;;;1.65;1.15;;;;;;;;;;4998686;28;20563;-83
2022/04/07 02:00:00;;;;;;;2.30;1.45;;;;;;;;;;4993184;28;20129;-83
2022/04/07 02:02:27;;;;;;;2.63;1.25;;;;;;;;;;4994774;28;20129;-84
2022/04/07 02:04:55;;;;;;;3.03;1.63;;;;;;;;;;4990908;28;20046;-83
2022/04/07 02:07:21;;;;;;;2.03;1.42;;;;;;;;;;4996358;28;20129;-83
2022/04/07 02:09:48;;;;;;;2.78;1.52;;;;;;;;;;4988835;28;20078;-83
2022/04/07 02:12:15;;;;;;;2.53;1.40;;;;;;;;;;4995671;28;20121;-83
2022/04/07 02:14:42;;;;;;;1.45;1.27;;;;;;;;;;4990577;28;20046;-83
2022/04/07 02:17:10;;;;;;;2.88;1.60;;;;;;;;;;4993037;28;20050;-83
2022/04/07 02:19:37;;;;;;;2.58;1.45;;;;;;;;;;4980737;28;20057;-82
2022/04/07 02:22:03;;;;;;;2.25;1.20;;;;;;;;;;4995160;28;20551;-85
2022/04/07 02:24:31;;;;;;;2.20;1.35;;;;;;;;;;4991402;28;20121;-81
2022/04/07 02:26:57;;;;;;;2.05;1.30;;;;;;;;;;4996221;28;20038;-84
2022/04/07 02:29:24;;;;;;;2.53;1.50;;;;;;;;;;4993201;28;20498;-84
2022/04/07 02:31:51;;;;;;;3.03;1.35;;;;;;;;;;4988935;28;20124;-82
2022/04/07 02:34:19;;;;;;;2.05;1.25;;;;;;;;;;4997416;28;20415;-82
2022/04/07 02:36:45;;;;;;;2.45;1.98;;;;;;;;;;4992701;28;20129;-83
2022/04/07 02:39:12;;;;;;;2.10;1.17;;;;;;;;;;4993636;28;20133;-84
2022/04/07 02:41:38;;;;;;;2.85;1.45;;;;;;;;;;4995235;28;20130;-83
2022/04/07 02:44:05;;;;;;;1.77;1.10;;;;;;;;;;4992654;28;20129;-83
2022/04/07 02:46:32;;;;;;;1.70;1.00;;;;;;;;;;4994248;28;20478;-83
2022/04/07 02:48:58;;;;;;;3.33;1.30;;;;;;;;;;4994306;28;20114;-85
2022/04/07 02:51:26;;;;;;;4.10;1.27;;;;;;;;;;4994940;28;20443;-82
2022/04/07 02:53:57;;;;;;;2.05;0.80;;;;;;;;;;4995396;28;20038;-82
2022/04/07 02:56:24;;;;;;;1.27;0.95;;;;;;;;;;4996734;28;20073;-81
2022/04/07 02:58:51;;;;;;;2.40;2.08;;;;;;;;;;4998945;28;20435;-82
2022/04/07 03:01:18;;;;;;;2.08;0.90;;;;;;;;;;4996142;28;20046;-82
2022/04/07 03:03:44;;;;;;;2.33;0.98;;;;;;;;;;4995413;28;20121;-85
2022/04/07 03:06:11;;;;;;;2.47;0.80;;;;;;;;;;4993840;28;20148;-84
2022/04/07 03:08:39;;;;;;;1.30;0.80;;;;;;;;;;4993964;28;20129;-82
2022/04/07 03:11:08;;;;;;;1.70;1.08;;;;;;;;;;5001070;28;20049;-83
2022/04/07 03:13:36;;;;;;;1.85;0.90;;;;;;;;;;5006997;28;20126;-85
2022/04/07 03:16:03;;;;;;;2.53;1.00;;;;;;;;;;5001968;28;20117;-82
2022/04/07 03:18:30;;;;;;;1.50;0.90;;;;;;;;;;5006274;28;20172;-81
2022/04/07 03:20:57;;;;;;;1.95;0.82;;;;;;;;;;4987704;28;20448;-83
2022/04/07 03:23:23;;;;;;;2.45;0.90;;;;;;;;;;4995023;28;20034;-82
2022/04/07 03:25:51;;;;;;;2.13;0.73;;;;;;;;;;4998633;28;20050;-82
2022/04/07 03:28:18;;;;;;;1.98;0.77;;;;;;;;;;4994508;28;20541;-82
2022/04/07 03:30:44;;;;;;;2.10;0.80;;;;;;;;;;4997989;28;20683;-82
2022/04/07 03:33:11;;;;;;;1.58;0.90;;;;;;;;;;4994708;28;20081;-83
2022/04/07 03:35:38;;;;;;;0.98;0.80;;;;;;;;;;4993681;28;20121;-82
2022/04/07 03:38:05;;;;;;;0.88;0.70;;;;;;;;;;4992383;28;20069;-83
2022/04/07 03:40:32;;;;;;;1.30;0.70;;;;;;;;;;4990206;28;20045;-83
2022/04/07 03:43:01;;;;;;;1.23;0.70;;;;;;;;;;4985127;28;20108;-85
2022/04/07 03:45:27;;;;;;;0.75;0.52;;;;;;;;;;4998259;28;20120;-86
2022/04/07 03:47:54;;;;;;;1.63;0.98;;;;;;;;;;4994071;28;20552;-83
2022/04/07 03:50:21;;;;;;;1.40;0.63;;;;;;;;;;5001847;28;20069;-82
2022/04/07 03:52:48;;;;;;;4.47;0.60;;;;;;;;;;4997749;28;20542;-81
2022/04/07 03:55:14;;;;;;;3.58;0.63;;;;;;;;;;4992326;28;20042;-81
2022/04/07 03:57:41;;;;;;;1.42;0.60;;;;;;;;;;4989156;28;20097;-81
2022/04/07 04:00:09;;;;;;;1.48;0.70;;;;;;;;;;4990680;28;20733;-82
2022/04/07 04:02:36;;;;;;;2.65;0.60;;;;;;;;;;4985417;28;20069;-81
2022/04/07 04:05:02;;;;;;;1.23;0.57;;;;;;;;;;4982682;28;20125;-82
2022/04/07 04:07:29;;;;;;;1.90;0.65;;;;;;;;;;4981977;28;20137;-83
2022/04/07 04:09:56;;;;;;;0.93;0.50;;;;;;;;;;4988571;28;20125;-83
2022/04/07 04:12:22;;;;;;;0.50;0.30;;;;;;;;;;4992382;28;20554;-83
2022/04/07 04:14:48;;;;;;;1.10;0.70;;;;;;;;;;4991034;28;20125;-85
2022/04/07 04:17:16;;;;;;;0.60;0.40;;;;;;;;;;4993277;28;20046;-83
2022/04/07 04:19:43;;;;;;;0.55;0.38;;;;;;;;;;4978535;28;20117;-84
2022/04/07 04:22:09;;;;;;;0.45;0.32;;;;;;;;;;4991554;28;20117;-82
2022/04/07 04:24:36;;;;;;;0.70;0.60;;;;;;;;;;4994753;28;20118;-82
2022/04/07 04:27:02;;;;;;;0.60;0.35;;;;;;;;;;4995256;28;20070;-84
2022/04/07 04:29:29;;;;;;;1.10;0.50;;;;;;;;;;4992540;28;20446;-82
2022/04/07 04:31:55;;;;;;;1.20;0.55;;;;;;;;;;4994048;28;20453;-83
2022/04/07 04:34:23;;;;;;;2.17;0.55;;;;;;;;;;4991757;28;20070;-85
2022/04/07 04:36:50;;;;;;;1.10;0.52;;;;;;;;;;4993647;28;20133;-83
2022/04/07 04:39:16;;;;;;;1.85;0.68;;;;;;;;;;4991509;28;20490;-83
2022/04/07 04:41:43;;;;;;;10.90;1.80;;;;;;;;;;4996956;28;20128;-82
2022/04/07 04:44:09;;;;;;;1.10;0.60;;;;;;;;;;4993157;28;20073;-83
2022/04/07 04:46:36;;;;;;;0.85;0.55;;;;;;;;;;4997715;28;20093;-84
2022/04/07 04:49:02;;;;;;;2.92;0.88;;;;;;;;;;5004977;28;20049;-83
2022/04/07 04:51:30;;;;;;;2.15;0.80;;;;;;;;;;5003211;28;20137;-83
2022/04/07 04:53:57;;;;;;;1.38;0.80;;;;;;;;;;5001374;28;20080;-83
2022/04/07 04:56:23;;;;;;;0.73;0.43;;;;;;;;;;5009781;28;20041;-86
2022/04/07 04:58:50;;;;;;;1.58;0.68;;;;;;;;;;5014344;28;20082;-83
2022/04/07 05:01:17;;;;;;;0.73;0.38;;;;;;;;;;5016338;28;20537;-84
2022/04/07 05:03:44;;;;;;;0.88;0.43;;;;;;;;;;5014996;28;20059;-87
2022/04/07 05:06:10;;;;;;;0.80;0.60;;;;;;;;;;5017103;28;20114;-83
2022/04/07 05:08:38;;;;;;;0.85;0.38;;;;;;;;;;5015058;28;20185;-83
2022/04/07 05:11:05;;;;;;;0.88;0.60;;;;;;;;;;5019579;28;20073;-84
2022/04/07 05:13:31;;;;;;;1.65;0.50;;;;;;;;;;5016159;28;20065;-84
2022/04/07 05:15:58;;;;;;;2.05;0.30;;;;;;;;;;5017616;28;20117;-82
2022/04/07 05:18:24;;;;;;;1.30;0.30;;;;;;;;;;5008565;28;20140;-82
2022/04/07 05:20:51;;;;;;;1.95;0.70;;;;;;;;;;5014208;28;20136;-82
2022/04/07 05:23:17;;;;;;;1.48;0.50;;;;;;;;;;5017151;28;20125;-82
2022/04/07 05:25:46;;;;;;;0.70;0.38;;;;;;;;;;5012638;28;20129;-85
2022/04/07 05:28:13;;;;;;;0.88;0.47;;;;;;;;;;5016228;28;20133;-82
2022/04/07 05:30:39;;;;;;;1.15;0.68;;;;;;;;;;5012716;28;20120;-83
2022/04/07 05:33:06;;;;;;;0.50;0.40;;;;;;;;;;5014245;28;20113;-82
2022/04/07 05:35:32;;;;;;;2.30;0.40;;;;;;;;;;5013152;28;20499;-82
2022/04/07 05:38:00;;;;;;;0.90;0.57;;;;;;;;;;5017614;28;20112;-81
2022/04/07 05:40:27;;;;;;;0.43;0.38;;;;;;;;;;5015633;28;20038;-83
2022/04/07 05:42:56;;;;;;;1.38;0.55;;;;;;;;;;5019051;28;20108;-85
2022/04/07 05:45:22;;;;;;;0.85;0.45;;;;;;;;;;5008746;28;20077;-82
2022/04/07 05:47:49;;;;;;;4.35;1.05;;;;;;;;;;5013220;28;21495;-83
2022/04/07 05:50:17;;;;;;;1.15;0.43;;;;;;;;;;5014956;28;20068;-83
2022/04/07 05:52:43;;;;;;;0.75;0.57;;;;;;;;;;5012236;28;20073;-85
2022/04/07 05:55:10;;;;;;;0.55;0.40;;;;;;;;;;5014458;28;20518;-85
2022/04/07 05:57:36;;;;;;;0.70;0.38;;;;;;;;;;5014229;28;20133;-84
2022/04/07 06:00:10;;;;;;;1.02;0.45;;;;;;;;;;5016422;28;20073;-81
2022/04/07 06:02:37;;;;;;;0.90;0.50;;;;;;;;;;5009230;28;20053;-83
2022/04/07 06:05:05;;;;;;;1.98;0.68;;;;;;;;;;5013495;28;20113;-84
2022/04/07 06:07:32;;;;;;;0.95;0.50;;;;;;;;;;5012828;28;20120;-83
2022/04/07 06:09:58;;;;;;;1.27;0.70;;;;;;;;;;5012785;28;20046;-86
2022/04/07 06:12:25;;;;;;;1.15;0.60;;;;;;;;;;5019928;28;20041;-82
2022/04/07 06:14:51;;;;;;;3.03;0.30;;;;;;;;;;5020190;28;20571;-82
2022/04/07 06:17:19;;;;;;;0.80;0.40;;;;;;;;;;5010537;28;20087;-82
2022/04/07 06:19:46;;;;;;;0.75;0.40;;;;;;;;;;5015864;28;20132;-83
2022/04/07 06:22:12;;;;;;;0.93;0.43;;;;;;;;;;5019664;28;20050;-81
2022/04/07 06:24:39;;;;;;;0.70;0.40;;;;;;;;;;5014198;28;20145;-84
2022/04/07 06:27:06;;;;;;;0.65;0.22;;;;;;;;;;5007506;28;20089;-83
2022/04/07 06:29:32;;;;;;;0.75;0.40;;;;;;;;;;5015095;28;20415;-82
2022/04/07 06:31:59;;;;;;;1.30;0.38;;;;;;;;;;5020473;28;20157;-83
2022/04/07 06:34:27;;;;;;;0.77;0.50;;;;;;;;;;5015380;28;20133;-83
2022/04/07 06:36:53;;;;;;;0.55;0.30;;;;;;;;;;5013810;28;20376;-83
2022/04/07 06:39:26;;;;;;;1.63;0.60;;;;;;;;;;5012470;28;20439;-82
2022/04/07 06:41:52;;;;;;;1.08;0.32;;;;;;;;;;5013069;28;20085;-82
2022/04/07 06:44:19;;;;;;;0.75;0.40;;;;;;;;;;5019021;28;20121;-83
2022/04/07 06:46:46;;;;;;;0.57;0.30;;;;;;;;;;5016470;28;20267;-84
2022/04/07 06:49:12;;;;;;;0.77;0.50;;;;;;;;;;5019025;28;20076;-81
2022/04/07 06:51:41;;;;;;;1.23;0.35;;;;;;;;;;5014316;28;20081;-82
2022/04/07 06:54:08;;;;;;;1.05;0.50;;;;;;;;;;5019954;28;20129;-83
2022/04/07 06:56:34;;;;;;;0.80;0.40;;;;;;;;;;5013645;28;20084;-82
2022/04/07 06:59:01;;;;;;;0.70;0.22;;;;;;;;;;5015240;28;20125;-82
2022/04/07 07:01:27;;;;;;;0.57;0.30;;;;;;;;;;5012393;28;20100;-81
2022/04/07 07:03:54;;;;;;;1.40;0.73;;;;;;;;;;5005926;28;20441;-83
2022/04/07 07:06:21;;;;;;;0.70;0.40;;;;;;;;;;5012455;28;20124;-82
2022/04/07 07:08:49;;;;;;;1.70;0.52;;;;;;;;;;5016890;28;20504;-80
2022/04/07 07:11:15;;;;;;;0.82;0.40;;;;;;;;;;5015935;28;20041;-82
2022/04/07 07:13:42;;;;;;;1.98;0.60;;;;;;;;;;5012141;28;20129;-81
2022/04/07 07:16:09;;;;;;;0.73;0.55;;;;;;;;;;5014641;28;20247;-83
2022/04/07 07:18:38;;;;;;;1.58;0.52;;;;;;;;;;5014132;28;20128;-82
2022/04/07 07:21:04;;;;;;;0.95;0.35;;;;;;;;;;5020311;28;20049;-82
2022/04/07 07:23:32;;;;;;;2.47;0.43;;;;;;;;;;5012952;28;20117;-82
2022/04/07 07:26:00;;;;;;;1.33;0.30;;;;;;;;;;5014728;28;20049;-84
2022/04/07 07:28:27;;;;;;;0.63;0.45;;;;;;;;;;5024121;28;20076;-82
2022/04/07 07:30:53;;;;;;;0.47;0.25;;;;;;;;;;5013234;28;20120;-83
2022/04/07 07:33:20;;;;;;;0.25;0.20;;;;;;;;;;5013631;28;20439;-83
2022/04/07 07:35:47;;;;;;;0.25;0.25;;;;;;;;;;5014154;28;20132;-85
2022/04/07 07:38:14;;;;;;;0.60;0.30;;;;;;;;;;5012348;28;20133;-83
2022/04/07 07:40:40;;;;;;;0.20;0.20;;;;;;;;;;5014446;28;20156;-86
2022/04/07 07:43:09;;;;;;;5.25;0.32;;;;;;;;;;5006581;28;20069;-82
2022/04/07 07:45:36;;;;;;;1.75;0.38;;;;;;;;;;5015987;28;20042;-83
2022/04/07 07:48:03;;;;;;;0.25;0.10;;;;;;;;;;5015044;28;20077;-85
2022/04/07 07:50:29;;;;;;;0.32;0.20;;;;;;;;;;5013410;28;20038;-84
2022/04/07 07:52:56;;;;;;;1.42;0.30;;;;;;;;;;5019261;28;20113;-84
2022/04/07 07:55:22;;;;;;;0.77;0.30;;;;;;;;;;5015184;28;20522;-83
2022/04/07 07:57:49;;;;;;;0.20;0.20;;;;;;;;;;5015604;28;20139;-87
2022/04/07 08:00:17;;;;;;;1.55;0.30;;;;;;;;;;5015510;28;20080;-85
2022/04/07 08:02:44;;;;;;;1.75;0.30;;;;;;;;;;5017747;28;20558;-85
2022/04/07 08:05:12;;;;;;;1.02;0.30;;;;;;;;;;5023564;28;20125;-83
2022/04/07 08:07:40;;;;;;;7.47;1.15;;;;;;;;;;5017399;28;20048;-82
2022/04/07 08:10:07;;;;;;;1.83;0.40;;;;;;;;;;5018016;28;20114;-83
2022/04/07 08:12:34;;;;;;;2.58;0.55;;;;;;;;;;5018328;28;20128;-83
2022/04/07 08:15:00;;;;;;;0.95;0.40;;;;;;;;;;5016190;28;20195;-82
2022/04/07 08:17:28;;;;;;;2.85;1.38;;;;;;;;;;5017564;28;20141;-83
2022/04/07 08:19:55;;;;;;;0.28;0.20;;;;;;;;;;5021932;28;20128;-82
2022/04/07 08:22:21;;;;;;;1.90;0.38;;;;;;;;;;5016873;28;20048;-84
2022/04/07 08:24:48;;;;;;;0.63;0.30;;;;;;;;;;5021157;28;20121;-83
2022/04/07 08:27:14;;;;;;;2.53;0.60;;;;;;;;;;5014863;28;20573;-82
2022/04/07 08:29:41;;;;;;;1.05;0.50;;;;;;;;;;5015424;28;20124;-84
2022/04/07 08:32:08;;;;;;;1.60;0.30;;;;;;;;;;5014266;28;20078;-84
2022/04/07 08:34:37;;;;;;;0.73;0.30;;;;;;;;;;5017991;28;20104;-85
2022/04/07 08:37:04;;;;;;;1.08;0.50;;;;;;;;;;5015038;28;20081;-83
2022/04/07 08:39:31;;;;;;;1.10;0.40;;;;;;;;;;5016407;28;20072;-84
2022/04/07 08:41:58;;;;;;;1.10;0.35;;;;;;;;;;5018024;28;20630;-83
2022/04/07 08:44:31;;;;;;;0.20;0.20;;;;;;;;;;5019750;28;20132;-84
2022/04/07 08:46:58;;;;;;;0.50;0.25;;;;;;;;;;5018076;28;20070;-83
2022/04/07 08:49:26;;;;;;;2.72;0.57;;;;;;;;;;5015249;28;20121;-84
2022/04/07 08:51:54;;;;;;;0.60;0.20;;;;;;;;;;5013678;28;20452;-84
2022/04/07 08:54:21;;;;;;;0.73;0.35;;;;;;;;;;5010183;28;20042;-83
2022/04/07 08:56:49;;;;;;;2.55;0.50;;;;;;;;;;5015258;28;20034;-84
2022/04/07 08:59:16;;;;;;;0.93;0.40;;;;;;;;;;5016453;28;20041;-84
2022/04/07 09:01:46;;;;;;;0.30;0.20;;;;;;;;;;5015454;28;20453;-83
2022/04/07 09:04:13;;;;;;;0.45;0.32;;;;;;;;;;5014362;28;20621;-84
2022/04/07 09:06:41;;;;;;;0.20;0.20;;;;;;;;;;5014154;28;20054;-83
2022/04/07 09:09:16;;;;;;;0.50;0.30;;;;;;;;;;5014479;28;20129;-85
2022/04/07 09:11:43;;;;;;;0.50;0.30;;;;;;;;;;5013454;28;20042;-85
2022/04/07 09:14:11;;;;;;;1.17;0.22;;;;;;;;;;5016859;28;20073;-82
2022/04/07 09:16:39;;;;;;;0.77;0.40;;;;;;;;;;5014669;28;20038;-81
2022/04/07 09:19:08;;;;;;;1.48;0.60;;;;;;;;;;5020308;28;20128;-79
2022/04/07 09:21:35;;;;;;;2.38;0.50;;;;;;;;;;5024526;28;20042;-81
2022/04/07 09:24:05;;;;;;;1.55;1.25;;;;;;;;;;5012477;28;20034;-81
2022/04/07 09:26:35;;;;;;;0.95;0.35;;;;;;;;;;5012628;28;20038;-84
2022/04/07 09:29:07;;;;;;;1.70;0.17;;;;;;;;;;5015746;28;20061;-80
2022/04/07 09:31:37;;;;;;;0.55;0.32;;;;;;;;;;5016404;28;20064;-80
2022/04/07 09:34:04;;;;;;;0.57;0.10;;;;;;;;;;5013198;28;20045;-80
2022/04/07 09:36:30;;;;;;;0.68;0.28;;;;;;;;;;5013215;28;20076;-82
2022/04/07 09:38:58;;;;;;;1.98;0.40;;;;;;;;;;5012078;28;20037;-83
2022/04/07 09:41:28;;;;;;;3.30;0.20;;;;;;;;;;5010837;28;20041;-84
2022/04/07 09:43:59;;;;;;;0.57;0.30;;;;;;;;;;5012989;28;20120;-83
2022/04/07 09:46:26;;;;;;;3.53;0.32;;;;;;;;;;5012312;28;20054;-83
2022/04/07 09:49:01;;;;;;;0.77;0.30;;;;;;;;;;5012563;28;20372;-82
2022/04/07 09:51:28;;;;;;;0.33;0.17;;;;;;;;;;5011637;28;20125;-83
2022/04/07 09:53:56;;;;;;;2.55;0.30;;;;;;;;;;5011393;28;20133;-83
2022/04/07 09:56:27;;;;;;;4.22;0.40;;;;;;;;;;5013667;28;20128;-82
2022/04/07 09:58:55;;;;;;;0.70;0.30;;;;;;;;;;5030136;28;20470;-83
2022/04/07 10:01:22;;;;;;;1.80;0.68;;;;;;;;;;5013227;28;20398;-83
2022/04/07 10:03:50;;;;;;;1.42;0.52;;;;;;;;;;5013483;28;20317;-84
2022/04/07 10:06:25;;;;;;;2.22;0.73;;;;;;;;;;5013407;28;20132;-85
2022/04/07 10:08:52;;;;;;;3.03;0.50;;;;;;;;;;5012212;28;20081;-84
2022/04/07 10:11:18;;;;;;;0.70;0.43;;;;;;;;;;5015913;28;20156;-83
2022/04/07 10:13:45;;;;;;;1.88;0.40;;;;;;;;;;5012780;28;20049;-83
2022/04/07 10:16:15;;;;;;;2.25;0.30;;;;;;;;;;5013428;28;20053;-85
2022/04/07 10:18:46;;;;;;;2.03;0.32;;;;;;;;;;5013956;28;20133;-85
2022/04/07 10:21:35;;;;;;;1.23;0.30;;;;;;;;;;5013199;28;20446;-83
2022/04/07 10:24:24;;;;;;;2.58;0.73;;;;;;;;;;5007670;28;20192;-81
2022/04/07 10:26:51;;;;;;;0.75;0.30;;;;;;;;;;5020236;28;20097;-82
2022/04/07 10:29:25;;;;;;;0.85;0.30;;;;;;;;;;5021840;28;20061;-82
2022/04/07 10:32:19;;;;;;;0.75;0.20;;;;;;;;;;5003173;28;20180;-86
2022/04/07 10:34:57;;;;;;;3.13;0.50;;;;;;;;;;5009521;28;20038;-82
2022/04/07 10:37:31;;;;;;;3.08;0.35;;;;;;;;;;5009310;28;20466;-83
2022/04/07 10:39:57;;;;;;;1.63;0.50;;;;;;;;;;5002649;28;20125;-82
2022/04/07 10:42:57;;;;;;;3.72;0.63;;;;;;;;;;5013112;28;20056;-84
2022/04/07 10:45:31;;;;;;;1.27;0.28;;;;;;;;;;4998723;28;20046;-81
2022/04/07 10:48:20;;;;;;;1.45;0.20;;;;;;;;;;5008753;28;20132;-81
2022/04/07 10:50:48;;;;;;;0.50;0.20;;;;;;;;;;5001326;28;20458;-83
2022/04/07 10:53:20;;;;;;;2.10;0.17;;;;;;;;;;5009427;28;20041;-82
2022/04/07 10:56:05;;;;;;;2.55;0.47;;;;;;;;;;5010503;28;20335;-81
2022/04/07 10:58:49;;;;;;;2.20;0.50;;;;;;;;;;5009426;28;20045;-80
2022/04/07 11:01:53;;;;;;;0.68;0.30;;;;;;;;;;5015605;28;20084;-83
2022/04/07 11:04:58;;;;;;;5.07;0.40;;;;;;;;;;5014610;28;20042;-82
2022/04/07 11:07:25;;;;;;;3.92;0.30;;;;;;;;;;5010388;28;20129;-81
2022/04/07 11:10:04;;;;;;;3.47;0.55;;;;;;;;;;5010818;28;20128;-83
2022/04/07 11:13:01;;;;;;;2.25;0.28;;;;;;;;;;5012527;28;20485;-81
2022/04/07 11:15:50;;;;;;;0.40;0.15;;;;;;;;;;5013554;28;20442;-81
2022/04/07 11:18:44;;;;;;;0.30;0.20;;;;;;;;;;5018115;28;20130;-83
2022/04/07 11:21:12;;;;;;;2.38;0.82;;;;;;;;;;5014759;28;20037;-82
2022/04/07 11:23:41;;;;;;;0.98;0.40;;;;;;;;;;5015009;28;20068;-83
2022/04/07 11:26:12;;;;;;;2.13;0.30;;;;;;;;;;5026156;28;20129;-85
2022/04/07 11:28:39;;;;;;;2.10;0.30;;;;;;;;;;5009206;28;20086;-83
2022/04/07 11:31:07;;;;;;;0.25;0.10;;;;;;;;;;5020307;28;20050;-83
2022/04/07 11:33:38;;;;;;;3.17;0.30;;;;;;;;;;5012092;28;20049;-82
2022/04/07 11:36:34;;;;;;;2.53;0.30;;;;;;;;;;5015614;28;20437;-82
2022/04/07 11:39:01;;;;;;;0.10;0.10;;;;;;;;;;5022004;28;20363;-87
2022/04/07 11:41:33;;;;;;;0.20;0.10;;;;;;;;;;5012908;28;20065;-82
2022/04/07 11:44:07;;;;;;;2.05;0.45;;;;;;;;;;5013611;28;20056;-83
2022/04/07 11:46:34;;;;;;;1.20;0.40;;;;;;;;;;5012694;28;20696;-84
2022/04/07 11:49:01;;;;;;;4.43;0.90;;;;;;;;;;5011929;28;20061;-83
2022/04/07 11:51:29;;;;;;;2.25;0.20;;;;;;;;;;5013758;28;20077;-83
2022/04/07 11:53:58;;;;;;;5.43;0.40;;;;;;;;;;5018528;28;20128;-83
2022/04/07 11:56:26;;;;;;;1.42;0.38;;;;;;;;;;5012667;28;20046;-82
2022/04/07 11:58:54;;;;;;;6.40;0.65;;;;;;;;;;5011882;28;20054;-81
2022/04/07 12:01:20;;;;;;;1.05;0.60;;;;;;;;;;5013572;28;20125;-83
2022/04/07 12:03:51;;;;;;;0.10;0.10;;;;;;;;;;5017327;28;20099;-81
2022/04/07 12:06:21;;;;;;;1.17;0.15;;;;;;;;;;5013389;28;20070;-82
2022/04/07 12:08:48;;;;;;;0.75;0.22;;;;;;;;;;5013191;28;20092;-82
2022/04/07 12:11:26;;;;;;;0.28;0.20;;;;;;;;;;5012070;28;20129;-83
2022/04/07 12:13:54;;;;;;;2.35;0.40;;;;;;;;;;5016195;28;20120;-82
2022/04/07 12:16:22;;;;;;;0.35;0.20;;;;;;;;;;5021009;28;20125;-81
2022/04/07 12:18:55;;;;;;;2.83;0.20;;;;;;;;;;5014206;28;20038;-82
2022/04/07 12:21:23;;;;;;;0.03;0.03;;;;;;;;;;5013258;28;20698;-82
2022/04/07 12:23:52;;;;;;;0.88;0.00;;;;;;;;;;5017126;28;20430;-81
2022/04/07 12:26:21;;;;;;;3.55;0.52;;;;;;;;;;5013539;28;20206;-80
2022/04/07 12:28:48;;;;;;;8.20;1.08;;;;;;;;;;5018074;28;20048;-82
2022/04/07 12:31:22;;;;;;;1.17;0.22;;;;;;;;;;5020599;28;20136;-83
2022/04/07 12:33:49;;;;;;;2.85;0.22;;;;;;;;;;4998263;28;20129;-82
2022/04/07 12:36:17;;;;;;;0.20;0.20;;;;;;;;;;5018248;28;20133;-83
2022/04/07 12:38:58;;;;;;;0.20;0.10;;;;;;;;;;5001823;28;20129;-81
2022/04/07 12:41:37;;;;;;;0.77;0.20;;;;;;;;;;5013614;28;20073;-84
2022/04/07 12:44:03;;;;;;;0.70;0.20;;;;;;;;;;5010849;28;20136;-82
2022/04/07 12:46:44;;;;;;;0.68;0.30;;;;;;;;;;5016507;28;20121;-82
2022/04/07 12:49:11;;;;;;;0.55;0.20;;;;;;;;;;5008601;28;20120;-81
2022/04/07 12:51:38;;;;;;;0.35;0.20;;;;;;;;;;5021287;28;20193;-80
2022/04/07 12:54:09;;;;;;;0.10;0.10;;;;;;;;;;5022051;28;20477;-81
2022/04/07 12:56:39;;;;;;;0.30;0.20;;;;;;;;;;5016113;28;20080;-81
2022/04/07 12:59:08;;;;;;;0.20;0.10;;;;;;;;;;5015876;28;20229;-81
2022/04/07 13:01:35;;;;;;;1.83;0.25;;;;;;;;;;5014956;28;20074;-81
2022/04/07 13:04:08;;;;;;;2.10;0.40;;;;;;;;;;5014052;28;20137;-82
2022/04/07 13:06:35;;;;;;;0.80;0.20;;;;;;;;;;5019401;28;20038;-81
2022/04/07 13:09:01;;;;;;;0.68;0.20;;;;;;;;;;5016032;28;20077;-81
2022/04/07 13:11:32;;;;;;;1.02;0.10;;;;;;;;;;5014726;28;20526;-81
2022/04/07 13:14:01;;;;;;;0.47;0.10;;;;;;;;;;5022699;28;20038;-82
2022/04/07 13:16:27;;;;;;;1.90;0.40;;;;;;;;;;5024548;28;20129;-80
2022/04/07 13:18:54;;;;;;;0.28;0.20;;;;;;;;;;5015675;28;20125;-82
2022/04/07 13:21:20;;;;;;;1.55;0.20;;;;;;;;;;5018537;28;20124;-83
2022/04/07 13:23:47;;;;;;;0.30;0.10;;;;;;;;;;5014732;28;20061;-82
2022/04/07 13:26:13;;;;;;;0.35;0.10;;;;;;;;;;5014462;28;20124;-82
2022/04/07 13:28:40;;;;;;;0.20;0.10;;;;;;;;;;5016605;28;20069;-81
2022/04/07 13:31:08;;;;;;;0.30;0.20;;;;;;;;;;5015199;28;20109;-82
2022/04/07 13:33:35;;;;;;;5.15;0.47;;;;;;;;;;5014797;28;20461;-83
2022/04/07 13:36:02;;;;;;;2.30;0.40;;;;;;;;;;5017107;28;20128;-81
2022/04/07 13:38:31;;;;;;;1.85;0.55;;;;;;;;;;5027043;28;20440;-81
2022/04/07 13:40:58;;;;;;;0.63;0.20;;;;;;;;;;5016501;28;20401;-80
2022/04/07 13:43:24;;;;;;;1.33;0.30;;;;;;;;;;5017623;28;20141;-80
2022/04/07 13:45:51;;;;;;;1.35;0.10;;;;;;;;;;5026341;28;20120;-81
2022/04/07 13:48:20;;;;;;;0.20;0.20;;;;;;;;;;5025677;28;20045;-80
2022/04/07 13:50:47;;;;;;;3.17;0.45;;;;;;;;;;5032323;28;20046;-82
2022/04/07 13:53:13;;;;;;;1.52;0.25;;;;;;;;;;5019371;28;20124;-82
2022/04/07 13:55:40;;;;;;;0.13;0.08;;;;;;;;;;5014315;28;20081;-80
2022/04/07 13:58:06;;;;;;;1.48;0.10;;;;;;;;;;4994360;28;20715;-81
2022/04/07 14:00:34;;;;;;;1.33;0.57;;;;;;;;;;5009715;28;20554;-81
2022/04/07 14:03:01;;;;;;;0.50;0.13;;;;;;;;;;5012914;28;20045;-81
2022/04/07 14:05:29;;;;;;;0.52;0.20;;;;;;;;;;5017093;28;20126;-80
2022/04/07 14:07:55;;;;;;;2.10;0.22;;;;;;;;;;5014714;28;20133;-81
2022/04/07 14:10:23;;;;;;;0.60;0.10;;;;;;;;;;5015289;28;20125;-80
2022/04/07 14:12:49;;;;;;;0.10;0.10;;;;;;;;;;5014376;28;20137;-80
2022/04/07 14:15:16;;;;;;;0.80;0.30;;;;;;;;;;5016695;28;20076;-80
2022/04/07 14:17:43;;;;;;;1.25;0.20;;;;;;;;;;5019194;28;20149;-79
2022/04/07 14:20:12;;;;;;;0.98;0.22;;;;;;;;;;5014516;28;20052;-81
2022/04/07 14:22:40;;;;;;;0.25;0.10;;;;;;;;;;5030913;28;20496;-80
2022/04/07 14:25:07;;;;;;;0.10;0.10;;;;;;;;;;5014331;28;20132;-80
2022/04/07 14:27:34;;;;;;;0.80;0.60;;;;;;;;;;5021807;28;20065;-81
2022/04/07 14:30:00;;;;;;;1.35;0.10;;;;;;;;;;5013967;28;20065;-80
2022/04/07 14:32:27;;;;;;;0.40;0.10;;;;;;;;;;5012663;28;20080;-82
2022/04/07 14:34:53;;;;;;;1.08;0.30;;;;;;;;;;5015648;28;20153;-82
2022/04/07 14:37:20;;;;;;;0.70;0.20;;;;;;;;;;5022790;28;20073;-83
2022/04/07 14:39:48;;;;;;;0.50;0.47;;;;;;;;;;5014315;28;20050;-83
2022/04/07 14:42:14;;;;;;;0.75;0.22;;;;;;;;;;5015488;28;20086;-82
2022/04/07 14:44:41;;;;;;;0.10;0.10;;;;;;;;;;5015035;28;20072;-83
2022/04/07 14:47:07;;;;;;;0.73;0.20;;;;;;;;;;5017634;28;20038;-81
2022/04/07 14:49:34;;;;;;;2.72;0.40;;;;;;;;;;5014113;28;20080;-84
2022/04/07 14:52:00;;;;;;;1.80;0.32;;;;;;;;;;5013831;28;20129;-81